Spokane, Missouri
Current Conditions -  °F | °C
As of 6:15 PM on Sunday 23 Nov 2014 (Local Time) from KFWB Reporting Station
Thunderstorm Thunderstorm  
Wind Chill: 57°   Ceiling: 6000
Heat Index: 57°   Visibility: 10mi
Dew Point: 55°   Wind: 14mph
Humidity: 94%   Direction: 120°ESE
Pressure: 29.28"   Gusts: NA
Location:  36.87°N, 93.3°W
Report Text: KFWB 240015Z AUTO 12012KT 10SM VCTS FEW020 SCT050 BKN060 14/13 A2928 RMK AO2 LTG DSNT SW-NW
Loading
Personal Weather Stations






























Interactive Weather Map New forecast layout! Learn more

10-Day Weather Forecast

Advertisements
Track Severe Weather on mobile